Covell, Illinois
Current Conditions -  °F | °C
As of 5:56 PM on Wednesday 28 Jan 2015 (Local Time) from KBMI Reporting Station
Clear Clear  
Wind Chill: 22°   Ceiling: Unl
Heat Index: 34°   Visibility: 10mi
Dew Point: 30°   Wind: 23mph
Humidity: 85%   Direction: 160°SSE
Pressure: 29.95"   Gusts: 30mph
Location:  40.4664°N, 88.9822°W
Report Text: KBMI 282356Z 16020G26KT 10SM CLR 01/M01 A2995 RMK AO2 58029 T00111011 10044 20011 PK WND 16027/2319 SLP162
Loading
Personal Weather Stations






























Interactive Weather Map New forecast layout! Learn more

10-Day Weather Forecast

Advertisements
Track Severe Weather on mobile